createdAt,value
2022-12-13T00:00:34.024Z,20.70
2022-12-13T00:03:01.414Z,21.00
2022-12-13T00:05:28.848Z,22.30
2022-12-13T00:07:56.304Z,23.33
2022-12-13T00:10:23.715Z,19.40
2022-12-13T00:12:51.163Z,19.13
2022-12-13T00:15:19.987Z,23.63
2022-12-13T00:17:47.385Z,24.27
2022-12-13T00:20:14.879Z,23.67
2022-12-13T00:22:42.337Z,22.97
2022-12-13T00:25:09.952Z,19.67
2022-12-13T00:27:37.414Z,23.20
2022-12-13T00:30:05.073Z,19.27
2022-12-13T00:32:33.844Z,19.83
2022-12-13T00:35:01.244Z,18.53
2022-12-13T00:37:28.681Z,20.93
2022-12-13T00:39:56.106Z,16.97
2022-12-13T00:42:23.492Z,20.80
2022-12-13T00:44:50.906Z,16.43
2022-12-13T00:47:20.670Z,19.30
2022-12-13T00:49:49.456Z,20.83
2022-12-13T00:52:16.953Z,24.43
2022-12-13T00:54:44.527Z,20.60
2022-12-13T00:57:11.898Z,21.67
2022-12-13T00:59:39.327Z,21.57
2022-12-13T01:02:06.714Z,17.07
2022-12-13T01:04:34.128Z,22.00
2022-12-13T01:07:02.931Z,20.73
2022-12-13T01:09:32.413Z,17.63
2022-12-13T01:12:00.529Z,21.37
2022-12-13T01:14:28.352Z,17.33
2022-12-13T01:16:56.371Z,20.33
2022-12-13T01:19:24.116Z,17.67
2022-12-13T01:21:55.210Z,18.63
2022-12-13T01:24:24.850Z,19.87
2022-12-13T01:26:52.385Z,18.57
2022-12-13T01:29:25.906Z,20.43
2022-12-13T01:31:54.067Z,15.70
2022-12-13T01:34:26.238Z,17.93
2022-12-13T01:36:58.067Z,18.90
2022-12-13T01:39:27.726Z,18.70
2022-12-13T01:41:59.229Z,24.53
2022-12-13T01:44:45.424Z,19.93
2022-12-13T01:47:13.535Z,20.70
2022-12-13T01:49:40.981Z,24.63
2022-12-13T01:52:09.665Z,16.27
2022-12-13T01:54:46.476Z,18.83
2022-12-13T01:57:16.438Z,18.70
2022-12-13T01:59:44.094Z,18.03
2022-12-13T02:02:13.484Z,17.47
2022-12-13T02:04:45.314Z,20.77
2022-12-13T02:07:14.053Z,16.93
2022-12-13T02:09:56.347Z,17.27
2022-12-13T02:12:25.328Z,19.20
2022-12-13T02:14:57.822Z,17.57
2022-12-13T02:17:30.396Z,16.67
2022-12-13T02:20:22.347Z,19.17
2022-12-13T02:22:59.453Z,20.40
2022-12-13T02:25:43.012Z,16.80
2022-12-13T02:28:31.827Z,18.47
2022-12-13T02:31:03.662Z,18.70
2022-12-13T02:33:39.198Z,18.23
2022-12-13T02:36:09.222Z,16.53
2022-12-13T02:38:40.299Z,16.00
2022-12-13T02:41:12.983Z,21.60
2022-12-13T02:43:45.449Z,20.33
2022-12-13T02:46:15.128Z,19.27
2022-12-13T02:48:43.721Z,15.60
2022-12-13T02:51:12.417Z,19.20
2022-12-13T02:53:41.314Z,21.10
2022-12-13T02:56:08.774Z,17.33
2022-12-13T02:58:38.742Z,15.63
2022-12-13T03:01:27.983Z,17.20
2022-12-13T03:04:01.052Z,14.23
2022-12-13T03:06:33.571Z,15.53
2022-12-13T03:09:08.983Z,18.60
2022-12-13T03:11:58.967Z,17.10
2022-12-13T03:14:30.597Z,17.43
2022-12-13T03:16:59.922Z,19.47
2022-12-13T03:19:28.792Z,17.73
2022-12-13T03:21:56.195Z,17.90
2022-12-13T03:24:23.565Z,15.00
2022-12-13T03:26:51.704Z,20.70
2022-12-13T03:29:24.179Z,18.23
2022-12-13T03:31:52.417Z,18.07
2022-12-13T03:34:22.350Z,19.47
2022-12-13T03:36:52.218Z,15.53
2022-12-13T03:39:20.423Z,19.43
2022-12-13T03:41:47.873Z,17.10
2022-12-13T03:44:15.290Z,15.67
2022-12-13T03:46:42.972Z,18.97
2022-12-13T03:49:15.250Z,19.53
2022-12-13T03:51:44.419Z,18.10
2022-12-13T03:54:13.255Z,18.60
2022-12-13T03:56:40.698Z,18.27
2022-12-13T03:59:09.163Z,16.40
2022-12-13T04:01:36.633Z,19.43
2022-12-13T04:04:04.235Z,17.97
2022-12-13T04:06:33.180Z,18.27
2022-12-13T04:09:01.129Z,16.33
2022-12-13T04:11:47.177Z,15.90
2022-12-13T04:14:21.813Z,18.80
2022-12-13T04:16:50.619Z,16.17
2022-12-13T04:19:23.846Z,15.87
2022-12-13T04:21:51.554Z,18.77
2022-12-13T04:24:18.958Z,18.20
2022-12-13T04:26:47.923Z,15.30
2022-12-13T04:29:15.314Z,18.90
2022-12-13T04:31:42.797Z,19.40
2022-12-13T04:34:10.403Z,16.43
2022-12-13T04:36:37.793Z,16.27
2022-12-13T04:39:21.734Z,16.60
2022-12-13T04:41:52.654Z,17.63
2022-12-13T04:44:29.006Z,15.90
2022-12-13T04:47:01.243Z,17.13
2022-12-13T04:49:28.962Z,18.87
2022-12-13T04:52:00.824Z,22.37
2022-12-13T04:54:35.730Z,15.73
2022-12-13T04:57:06.082Z,14.73
2022-12-13T04:59:33.448Z,13.90
2022-12-13T05:02:00.930Z,15.27
2022-12-13T05:04:32.650Z,19.70
2022-12-13T05:07:00.562Z,14.90
2022-12-13T05:09:27.924Z,18.87
2022-12-13T05:12:01.683Z,15.47
2022-12-13T05:14:31.095Z,14.77
2022-12-13T05:16:58.538Z,19.00
2022-12-13T05:19:30.607Z,17.67
2022-12-13T05:22:01.934Z,16.77
2022-12-13T05:24:30.105Z,18.17
2022-12-13T05:26:58.097Z,17.60
2022-12-13T05:29:27.507Z,18.33
2022-12-13T05:31:56.287Z,21.33
2022-12-13T05:34:23.728Z,16.77
2022-12-13T05:36:51.116Z,18.90
2022-12-13T05:39:28.107Z,15.80
2022-12-13T05:42:01.571Z,15.73
2022-12-13T05:44:30.388Z,18.17
2022-12-13T05:46:59.211Z,16.00
2022-12-13T05:49:29.697Z,16.97
2022-12-13T05:51:57.103Z,19.40
2022-12-13T05:54:24.538Z,16.73
2022-12-13T05:56:51.960Z,15.27
2022-12-13T05:59:19.437Z,18.00
2022-12-13T06:01:46.899Z,18.27
2022-12-13T06:04:22.299Z,15.07
2022-12-13T06:06:50.996Z,16.10
2022-12-13T06:09:19.079Z,14.83
2022-12-13T06:11:47.739Z,15.70
2022-12-13T06:14:21.927Z,15.40
2022-12-13T06:16:50.388Z,16.13
2022-12-13T06:19:19.271Z,18.13
2022-12-13T06:21:46.776Z,16.87
2022-12-13T06:24:15.029Z,15.30
2022-12-13T06:26:42.443Z,16.77
2022-12-13T06:29:12.703Z,18.10
2022-12-13T06:31:52.568Z,13.63
2022-12-13T06:34:21.396Z,19.63
2022-12-13T06:36:48.823Z,18.97
2022-12-13T06:39:16.717Z,13.83
2022-12-13T06:41:44.122Z,17.00
2022-12-13T06:44:12.177Z,17.83
2022-12-13T06:46:40.969Z,24.40
2022-12-13T06:49:08.537Z,18.90
2022-12-13T06:51:37.289Z,19.00
2022-12-13T06:54:04.867Z,16.57
2022-12-13T06:56:32.706Z,15.47
2022-12-13T06:59:02.010Z,17.13
2022-12-13T07:01:37.080Z,15.93
2022-12-13T07:04:05.302Z,17.53
2022-12-13T07:06:54.256Z,18.17
2022-12-13T07:09:22.079Z,18.13
2022-12-13T07:11:52.328Z,16.93
2022-12-13T07:14:20.074Z,15.97
2022-12-13T07:16:47.693Z,20.10
2022-12-13T07:19:22.918Z,20.57
2022-12-13T07:21:52.156Z,12.07
2022-12-13T07:24:21.000Z,19.07
2022-12-13T07:26:48.403Z,20.77
2022-12-13T07:29:22.543Z,21.70
2022-12-13T07:31:50.428Z,16.27
2022-12-13T07:34:17.898Z,21.50
2022-12-13T07:36:45.420Z,24.10
2022-12-13T07:39:12.817Z,22.63
2022-12-13T07:41:41.684Z,14.57
2022-12-13T07:44:09.064Z,19.73
2022-12-13T07:46:36.570Z,18.60
2022-12-13T07:49:04.405Z,20.57
2022-12-13T07:51:34.057Z,19.87
2022-12-13T07:54:06.926Z,15.93
2022-12-13T07:56:34.919Z,17.47
2022-12-13T07:59:03.764Z,18.53
2022-12-13T08:01:32.287Z,19.83
2022-12-13T08:03:59.797Z,20.40
2022-12-13T08:06:27.154Z,19.93
2022-12-13T08:08:56.359Z,17.93
2022-12-13T08:11:23.815Z,18.77
2022-12-13T08:13:51.321Z,15.30
2022-12-13T08:16:26.425Z,21.37
2022-12-13T08:19:01.782Z,28.43
2022-12-13T08:24:21.517Z,26.40
2022-12-13T08:26:48.912Z,26.40
2022-12-13T08:29:23.486Z,23.13
2022-12-13T08:32:02.707Z,28.83
2022-12-13T08:34:30.658Z,18.40
2022-12-13T08:37:01.873Z,21.47
2022-12-13T08:39:30.566Z,22.13
2022-12-13T08:42:14.505Z,20.07
2022-12-13T08:44:44.992Z,22.87
2022-12-13T08:47:24.690Z,24.13
2022-12-13T08:49:54.319Z,22.33
2022-12-13T08:52:22.159Z,19.83
2022-12-13T08:54:49.597Z,21.70
2022-12-13T08:57:17.035Z,19.00
2022-12-13T08:59:44.525Z,23.60
2022-12-13T09:02:14.577Z,24.63
2022-12-13T09:04:42.370Z,19.33
2022-12-13T09:07:09.792Z,17.33
2022-12-13T09:09:37.745Z,22.27
2022-12-13T09:12:10.916Z,19.10
2022-12-13T09:14:53.397Z,23.87
2022-12-13T09:17:37.237Z,20.93
2022-12-13T09:20:10.259Z,24.87
2022-12-13T09:23:01.915Z,21.50
2022-12-13T09:25:36.679Z,21.70
2022-12-13T09:28:06.901Z,22.63
2022-12-13T09:30:34.355Z,19.60
2022-12-13T09:33:28.431Z,21.87
2022-12-13T09:35:50.724Z,20.50
2022-12-13T09:38:18.165Z,22.40
2022-12-13T09:40:46.650Z,19.37
2022-12-13T09:43:21.976Z,22.27
2022-12-13T09:45:52.780Z,19.47
2022-12-13T09:48:34.973Z,22.03
2022-12-13T09:51:18.018Z,24.70
2022-12-13T09:53:51.434Z,26.00
2022-12-13T09:56:19.681Z,21.97
2022-12-13T09:58:48.942Z,25.93
2022-12-13T10:01:22.648Z,19.57
2022-12-13T10:03:54.105Z,26.57
2022-12-13T10:06:23.467Z,20.83
2022-12-13T10:08:57.538Z,25.20
2022-12-13T10:11:31.405Z,25.10
2022-12-13T10:14:01.611Z,22.23
2022-12-13T10:16:36.555Z,22.53
2022-12-13T10:19:29.083Z,21.87
2022-12-13T10:22:02.335Z,22.27
2022-12-13T10:24:37.123Z,22.67
2022-12-13T10:27:11.370Z,25.93
2022-12-13T10:29:56.844Z,20.47
2022-12-13T10:32:24.249Z,20.20
2022-12-13T10:34:55.313Z,22.40
2022-12-13T10:37:28.485Z,21.67
2022-12-13T10:39:55.904Z,23.00
2022-12-13T10:42:26.830Z,24.27
2022-12-13T10:45:23.538Z,22.23
2022-12-13T10:47:51.491Z,19.20
2022-12-13T10:50:24.356Z,25.37
2022-12-13T10:52:52.120Z,21.80
2022-12-13T10:55:25.749Z,22.00
2022-12-13T10:57:53.966Z,20.90
2022-12-13T11:00:49.318Z,21.00
2022-12-13T11:03:29.618Z,23.90
2022-12-13T11:06:04.986Z,39.67
2022-12-13T11:08:32.406Z,28.27
2022-12-13T11:11:01.367Z,27.67
2022-12-13T11:13:33.708Z,30.47
2022-12-13T11:16:02.249Z,23.10
2022-12-13T11:18:35.459Z,29.40
2022-12-13T11:21:07.620Z,27.20
2022-12-13T11:23:36.444Z,28.93
2022-12-13T11:26:07.550Z,29.93
2022-12-13T11:28:43.291Z,23.30
2022-12-13T11:31:16.422Z,28.80
2022-12-13T11:33:50.303Z,27.23
2022-12-13T11:36:23.889Z,27.30
2022-12-13T11:38:58.227Z,30.73
2022-12-13T11:41:32.261Z,29.00
2022-12-13T11:44:03.595Z,25.63
2022-12-13T11:46:38.330Z,23.27
2022-12-13T11:49:10.669Z,26.37
2022-12-13T11:51:41.538Z,24.57
2022-12-13T11:54:11.668Z,28.60
2022-12-13T11:56:42.543Z,22.90
2022-12-13T11:59:23.825Z,26.60
2022-12-13T12:01:55.794Z,23.00
2022-12-13T12:04:35.563Z,26.90
2022-12-13T12:07:30.712Z,31.27
2022-12-13T12:09:56.961Z,24.50
2022-12-13T12:12:26.728Z,31.23
2022-12-13T12:14:57.622Z,23.17
2022-12-13T12:17:37.849Z,25.57
2022-12-13T12:20:12.317Z,28.33
2022-12-13T12:22:44.288Z,27.00
2022-12-13T12:25:18.233Z,27.47
2022-12-13T12:27:51.250Z,25.20
2022-12-13T12:30:23.874Z,25.87
2022-12-13T12:33:01.310Z,26.93
2022-12-13T12:35:39.219Z,31.60
2022-12-13T12:38:24.053Z,25.93
2022-12-13T12:43:50.013Z,25.00
2022-12-13T12:46:46.880Z,28.50
2022-12-13T12:49:31.078Z,27.23
2022-12-13T12:52:03.131Z,32.23
2022-12-13T12:54:40.006Z,32.13
2022-12-13T12:57:14.683Z,30.83
2022-12-13T12:59:46.283Z,31.67
2022-12-13T13:02:17.303Z,28.80
2022-12-13T13:04:46.619Z,31.33
2022-12-13T13:07:22.877Z,27.53
2022-12-13T13:09:54.709Z,31.00
2022-12-13T13:12:29.733Z,29.53
2022-12-13T13:14:58.651Z,32.87
2022-12-13T13:17:44.695Z,32.53
2022-12-13T13:20:19.600Z,26.97
2022-12-13T13:22:58.565Z,32.53
2022-12-13T13:25:54.004Z,33.97
2022-12-13T13:28:23.800Z,29.17
2022-12-13T13:31:03.195Z,30.60
2022-12-13T13:33:44.185Z,28.90
2022-12-13T13:36:31.606Z,27.50
2022-12-13T13:39:01.301Z,30.83
2022-12-13T13:41:56.608Z,28.10
2022-12-13T13:44:36.214Z,28.70
2022-12-13T13:47:14.083Z,30.83
2022-12-13T13:49:44.949Z,35.47
2022-12-13T13:52:26.475Z,29.83
2022-12-13T13:55:27.278Z,30.17
2022-12-13T13:58:11.155Z,27.37
2022-12-13T14:00:57.065Z,34.57
2022-12-13T14:03:43.832Z,29.33
2022-12-13T14:06:35.476Z,31.77
2022-12-13T14:09:15.615Z,30.93
2022-12-13T14:11:56.241Z,28.00
2022-12-13T14:14:42.462Z,27.63
2022-12-13T14:17:44.591Z,30.40
2022-12-13T14:20:26.942Z,30.00
2022-12-13T14:22:57.032Z,27.67
2022-12-13T14:25:40.259Z,31.83
2022-12-13T14:28:12.325Z,25.30
2022-12-13T14:30:42.626Z,27.67
2022-12-13T14:33:20.309Z,27.80
2022-12-13T14:35:54.623Z,30.07
2022-12-13T14:38:23.740Z,31.97
2022-12-13T14:40:52.123Z,34.27
2022-12-13T14:43:24.567Z,29.07
2022-12-13T14:45:57.689Z,26.73
2022-12-13T14:48:28.652Z,28.33
2022-12-13T14:50:57.247Z,32.17
2022-12-13T14:53:26.737Z,27.63
2022-12-13T14:56:05.415Z,28.17
2022-12-13T14:58:32.958Z,28.53
2022-12-13T15:01:00.677Z,28.67
2022-12-13T15:03:29.952Z,28.13
2022-12-13T15:05:58.810Z,28.07
2022-12-13T15:08:26.409Z,31.60
2022-12-13T15:10:55.211Z,29.93
2022-12-13T15:13:29.478Z,25.87
2022-12-13T15:16:00.097Z,29.77
2022-12-13T15:18:29.570Z,27.80
2022-12-13T15:20:57.674Z,30.03
2022-12-13T15:23:27.549Z,28.27
2022-12-13T15:25:59.017Z,30.77
2022-12-13T15:28:29.191Z,29.80
2022-12-13T15:30:57.266Z,27.17
2022-12-13T15:33:32.660Z,23.30
2022-12-13T15:36:05.462Z,31.57
2022-12-13T15:38:34.465Z,28.60
2022-12-13T15:41:02.814Z,32.43
2022-12-13T15:43:32.467Z,28.60
2022-12-13T15:46:00.007Z,29.57
2022-12-13T15:48:29.803Z,28.07
2022-12-13T15:51:12.422Z,26.67
2022-12-13T15:53:40.265Z,25.70
2022-12-13T15:56:22.568Z,28.00
2022-12-13T15:58:53.764Z,29.40
2022-12-13T16:01:25.863Z,30.67
2022-12-13T16:03:53.497Z,29.13
2022-12-13T16:06:23.485Z,32.93
2022-12-13T16:08:51.962Z,29.00
2022-12-13T16:11:26.538Z,27.87
2022-12-13T16:13:58.503Z,27.80
2022-12-13T16:16:28.429Z,31.27
2022-12-13T16:18:56.867Z,30.93
2022-12-13T16:21:25.697Z,31.47
2022-12-13T16:23:53.329Z,33.43
2022-12-13T16:26:25.412Z,30.03
2022-12-13T16:28:52.909Z,29.90
2022-12-13T16:31:21.987Z,33.17
2022-12-13T16:33:49.722Z,33.70
2022-12-13T16:36:17.716Z,30.47
2022-12-13T16:38:46.494Z,28.07
2022-12-13T16:41:14.653Z,32.60
2022-12-13T16:43:48.025Z,29.97
2022-12-13T16:47:14.234Z,33.40
2022-12-13T16:49:06.303Z,28.03
2022-12-13T16:51:34.705Z,27.93
2022-12-13T16:54:03.515Z,29.37
2022-12-13T16:56:30.894Z,24.90
2022-12-13T16:58:58.392Z,33.77
2022-12-13T17:01:25.875Z,29.40
2022-12-13T17:03:53.711Z,27.87
2022-12-13T17:06:22.578Z,31.83
2022-12-13T17:08:50.025Z,30.43
2022-12-13T17:11:18.818Z,41.33
2022-12-13T17:13:48.074Z,32.43
2022-12-13T17:16:15.970Z,30.40
2022-12-13T17:18:43.432Z,30.67
2022-12-13T17:21:11.344Z,29.80
2022-12-13T17:23:38.774Z,34.20
2022-12-13T17:26:06.901Z,30.93
2022-12-13T17:28:35.700Z,27.97
2022-12-13T17:31:07.151Z,27.77
2022-12-13T17:33:34.906Z,37.10
2022-12-13T17:36:03.518Z,30.10
2022-12-13T17:38:31.069Z,23.67
2022-12-13T17:40:58.463Z,25.73
2022-12-13T17:43:34.349Z,28.67
2022-12-13T17:46:04.707Z,38.80
2022-12-13T17:48:39.289Z,34.37
2022-12-13T17:51:08.301Z,31.00
2022-12-13T17:53:36.465Z,36.40
2022-12-13T17:56:05.627Z,33.93
2022-12-13T17:58:33.118Z,32.50
2022-12-13T18:01:01.015Z,35.13
2022-12-13T18:03:30.148Z,29.90
2022-12-13T18:05:57.999Z,31.63
2022-12-13T18:08:25.545Z,35.73
2022-12-13T18:11:15.760Z,39.17
2022-12-13T18:13:41.907Z,36.63
2022-12-13T18:16:10.855Z,35.40
2022-12-13T18:18:39.713Z,39.30
2022-12-13T18:21:07.976Z,30.47
2022-12-13T18:23:35.680Z,27.10
2022-12-13T18:26:03.783Z,37.97
2022-12-13T18:28:31.689Z,37.30
2022-12-13T18:30:59.649Z,42.53
2022-12-13T18:33:27.449Z,37.23
2022-12-13T18:35:56.452Z,40.23
2022-12-13T18:38:25.602Z,42.23
2022-12-13T18:40:55.659Z,39.20
2022-12-13T18:43:23.429Z,32.90
2022-12-13T18:45:50.870Z,40.13
2022-12-13T18:48:18.295Z,30.77
2022-12-13T18:50:48.806Z,34.57
2022-12-13T18:53:17.789Z,34.87
2022-12-13T18:55:45.291Z,35.10
2022-12-13T18:58:12.678Z,29.83
2022-12-13T19:00:40.100Z,30.37
2022-12-13T19:03:07.600Z,31.73
2022-12-13T19:05:35.145Z,32.70
2022-12-13T19:08:02.551Z,36.70
2022-12-13T19:10:32.602Z,33.23
2022-12-13T19:13:00.036Z,30.80
2022-12-13T19:15:28.660Z,35.40
2022-12-13T19:17:56.060Z,33.13
2022-12-13T19:20:23.548Z,32.90
2022-12-13T19:22:51.006Z,29.93
2022-12-13T19:25:20.640Z,33.50
2022-12-13T19:27:49.389Z,39.50
2022-12-13T19:30:22.006Z,34.57
2022-12-13T19:32:49.462Z,28.17
2022-12-13T19:35:17.030Z,32.10
2022-12-13T19:37:44.627Z,31.03
2022-12-13T19:40:12.484Z,31.83
2022-12-13T19:42:39.875Z,30.83
2022-12-13T19:45:09.012Z,30.67
2022-12-13T19:47:36.399Z,28.93
2022-12-13T19:50:03.885Z,24.07
2022-12-13T19:52:31.292Z,27.77
2022-12-13T19:54:59.487Z,33.17
2022-12-13T19:57:26.969Z,32.40
2022-12-13T19:59:54.420Z,30.40
2022-12-13T20:02:23.156Z,30.63
2022-12-13T20:04:51.302Z,32.87
2022-12-13T20:07:18.700Z,28.43
2022-12-13T20:09:46.106Z,33.43
2022-12-13T20:12:13.489Z,31.93
2022-12-13T20:14:40.882Z,33.43
2022-12-13T20:17:08.321Z,33.00
2022-12-13T20:19:37.208Z,31.70
2022-12-13T20:22:05.361Z,32.93
2022-12-13T20:24:32.910Z,32.73
2022-12-13T20:27:00.457Z,35.73
2022-12-13T20:29:27.856Z,36.27
2022-12-13T20:31:55.426Z,30.03
2022-12-13T20:34:22.884Z,30.30
2022-12-13T20:36:51.630Z,32.40
2022-12-13T20:39:19.074Z,33.57
2022-12-13T20:41:46.509Z,34.00
2022-12-13T20:44:14.530Z,31.63
2022-12-13T20:46:42.148Z,38.23
2022-12-13T20:49:10.548Z,39.57
2022-12-13T20:51:39.229Z,34.70
2022-12-13T20:54:08.340Z,33.47
2022-12-13T20:56:39.257Z,35.07
2022-12-13T20:59:07.788Z,33.33
2022-12-13T21:01:38.080Z,41.50
2022-12-13T21:04:06.442Z,40.03
2022-12-13T21:06:35.993Z,35.73
2022-12-13T21:09:04.654Z,32.80
2022-12-13T21:11:38.283Z,35.03
2022-12-13T21:14:10.146Z,33.93
2022-12-13T21:16:42.638Z,34.27
2022-12-13T21:19:11.200Z,31.33
2022-12-13T21:21:38.803Z,33.37
2022-12-13T21:24:06.728Z,34.07
2022-12-13T21:26:36.561Z,30.50
2022-12-13T21:29:06.285Z,29.67
2022-12-13T21:31:34.111Z,36.97
2022-12-13T21:34:01.980Z,31.00
2022-12-13T21:36:30.492Z,29.47
2022-12-13T21:38:58.889Z,37.43
2022-12-13T21:41:26.340Z,33.63
2022-12-13T21:43:55.071Z,31.93
2022-12-13T21:46:28.355Z,37.60
2022-12-13T21:49:09.001Z,29.57
2022-12-13T21:51:36.422Z,32.50
2022-12-13T21:54:03.844Z,24.97
2022-12-13T21:56:49.247Z,32.67
2022-12-13T21:59:19.102Z,34.93
2022-12-13T22:02:04.927Z,31.17
2022-12-13T22:04:32.834Z,34.33
2022-12-13T22:07:00.558Z,27.57
2022-12-13T22:09:28.015Z,30.87
2022-12-13T22:11:55.415Z,36.73
2022-12-13T22:14:24.220Z,28.83
2022-12-13T22:16:51.667Z,31.20
2022-12-13T22:19:19.332Z,34.40
2022-12-13T22:21:46.804Z,31.37
2022-12-13T22:24:14.354Z,30.37
2022-12-13T22:26:41.967Z,33.70
2022-12-13T22:29:11.805Z,30.70
2022-12-13T22:31:41.180Z,33.23
2022-12-13T22:34:08.922Z,33.20
2022-12-13T22:36:36.511Z,35.83
2022-12-13T22:39:04.808Z,34.17
2022-12-13T22:41:32.312Z,38.50
2022-12-13T22:44:00.114Z,33.73
2022-12-13T22:46:28.593Z,32.77
2022-12-13T22:48:57.635Z,32.50
2022-12-13T22:51:25.077Z,31.33
2022-12-13T22:53:52.500Z,29.47
2022-12-13T22:56:21.395Z,34.80
2022-12-13T22:58:49.262Z,27.17
2022-12-13T23:01:18.303Z,34.93
2022-12-13T23:03:46.507Z,26.27
2022-12-13T23:06:16.092Z,30.13
2022-12-13T23:08:44.843Z,32.50
2022-12-13T23:11:30.747Z,34.73
2022-12-13T23:13:59.251Z,30.23
2022-12-13T23:16:27.926Z,25.57
2022-12-13T23:19:16.994Z,28.50
2022-12-13T23:21:48.349Z,26.80
2022-12-13T23:24:16.383Z,33.03
2022-12-13T23:26:43.821Z,30.57
2022-12-13T23:29:11.294Z,29.77
2022-12-13T23:31:40.214Z,30.57
2022-12-13T23:34:07.872Z,29.70
2022-12-13T23:36:35.911Z,30.43
2022-12-13T23:39:05.928Z,24.43
2022-12-13T23:41:34.158Z,32.87
2022-12-13T23:44:01.955Z,31.63
2022-12-13T23:46:30.591Z,28.57
2022-12-13T23:48:58.061Z,26.47
2022-12-13T23:51:25.779Z,26.83
2022-12-13T23:53:53.433Z,31.17
2022-12-13T23:56:22.208Z,30.37
2022-12-13T23:58:49.877Z,32.40
